Weather reports worldwide

Advertisment
Ploudalmezeau, France (7101): temperature & dewpoint: 20.03.2019 08:00:00 - 26.03.2019 08:00:00 (CET)Ploudalmezeau, France (7101): wind speed: 20.03.2019 08:00:00 - 26.03.2019 08:00:00 (CET)Ploudalmezeau, France (7101): wind direction: 20.03.2019 08:00:00 - 26.03.2019 08:00:00 (CET)Ploudalmezeau, France (7101): reduced air pressure: 20.03.2019 08:00:00 - 26.03.2019 08:00:00 (CET)Ploudalmezeau, France (7101): precipitation: 20.03.2019 08:00:00 - 26.03.2019 08:00:00 (CET)
Date & Time tt [°C] td [°C] ff [km/h] ff [kn] dd ppp [hPa] rr [mm]
26.03.2019 08:00:00 - - - - - - -
26.03.2019 07:00:00 2,8 1,6 9 5 SE 1035,5 0,0
26.03.2019 06:00:00 4,1 2,4 10 6 SE 1035,2 0,0
26.03.2019 05:00:00 3,7 2,5 8 5 SSE 1035,4 0,0
26.03.2019 04:00:00 3,1 1,8 5 3 ESE 1035,3 0,0
26.03.2019 03:00:00 3,6 2,3 10 5 ESE 1035,4 0,0
26.03.2019 02:00:00 3,3 1,8 10 5 ESE 1035,5 0,0
26.03.2019 01:00:00 4,1 2,1 12 6 E 1035,6 0,0
26.03.2019 00:00:00 3,7 1,7 9 5 ESE 1035,7 0,0
25.03.2019 23:00:00 4,1 2,1 10 5 E 1035,4 0,0
25.03.2019 22:00:00 5,2 2,9 11 6 E 1034,8 0,0
25.03.2019 21:00:00 6,7 3,3 14 8 E 1034,5 0,0
25.03.2019 20:00:00 7,3 3,5 13 7 E 1034,0 0,0
25.03.2019 19:00:00 8,9 3,5 20 11 ENE 1033,6 0,0
25.03.2019 18:00:00 9,8 4,2 23 12 ENE 1033,4 0,0
25.03.2019 17:00:00 10,4 4,7 26 14 ENE 1033,1 0,0
25.03.2019 16:00:00 10,6 5,4 26 14 ENE 1033,3 0,0
25.03.2019 15:00:00 11,3 6,2 26 14 NE 1033,5 0,0
25.03.2019 14:00:00 10,8 5,1 26 14 NE 1033,9 0,0
25.03.2019 13:00:00 11,6 6,1 24 13 NE 1034,1 0,0
25.03.2019 12:00:00 11,4 5,9 28 15 NE 1034,6 0,0
25.03.2019 11:00:00 10,7 5,7 28 15 NE 1034,7 0,0
25.03.2019 10:00:00 10,6 6,7 24 13 NE 1034,1 0,0
25.03.2019 09:00:00 10,2 6,9 21 11 NE 1034,0 0,0
25.03.2019 08:00:00 9,3 6,6 19 11 NE 1033,3 0,0
25.03.2019 07:00:00 8,8 6,1 21 12 NE 1032,8 0,0
25.03.2019 06:00:00 8,5 6,1 19 10 NE 1032,7 0,0
25.03.2019 05:00:00 8,2 6,0 19 10 NE 1032,6 0,0
25.03.2019 04:00:00 8,1 5,7 20 11 NE 1032,8 0,0
25.03.2019 03:00:00 7,9 5,2 18 10 NE 1033,0 0,0
25.03.2019 02:00:00 8,1 4,7 22 12 NE 1033,1 0,0
25.03.2019 01:00:00 7,9 4,3 19 11 NE 1033,5 0,0
25.03.2019 00:00:00 7,8 4,6 19 10 NNE 1033,4 0,0
24.03.2019 23:00:00 8,0 4,2 19 11 NNE 1033,6 0,0
24.03.2019 22:00:00 8,6 5,3 18 10 NNE 1033,6 0,0
24.03.2019 21:00:00 8,7 6,1 13 7 NNE 1033,1 0,0
24.03.2019 20:00:00 9,6 7,0 16 8 NE 1033,0 0,0
24.03.2019 19:00:00 9,8 7,2 13 7 NE 1032,7 0,0
24.03.2019 18:00:00 10,5 7,7 16 9 NE 1032,4 0,0
24.03.2019 17:00:00 10,9 7,8 18 10 NE 1032,1 0,0
24.03.2019 16:00:00 11,9 8,7 20 11 NE 1032,1 0,0
24.03.2019 15:00:00 12,0 8,5 22 12 NE 1032,2 0,0
24.03.2019 14:00:00 11,3 8,2 22 12 NE 1032,4 0,0
24.03.2019 13:00:00 12,1 9,1 22 12 NE 1032,3 0,0
24.03.2019 12:00:00 11,6 8,8 16 8 ENE 1032,2 0,0
24.03.2019 11:00:00 10,7 9,3 14 8 ENE 1032,1 0,0
24.03.2019 10:00:00 9,9 9,9 8 4 ENE 1032,1 0,0
24.03.2019 09:00:00 8,0 8,0 2 1 E 1031,9 0,0
24.03.2019 08:00:00 6,3 6,3 3 1 E 1031,1 0,0
24.03.2019 07:00:00 5,7 5,7 4 2 ESE 1030,2 0,0
24.03.2019 06:00:00 5,6 5,5 7 4 E 1029,9 0,0
24.03.2019 05:00:00 6,6 6,3 10 5 E 1030,1 0,0
24.03.2019 04:00:00 6,3 5,9 5 3 ENE 1030,2 0,0
24.03.2019 03:00:00 7,5 6,9 9 5 E 1029,9 0,0
24.03.2019 02:00:00 8,4 7,5 9 5 E 1029,9 0,0
24.03.2019 01:00:00 9,3 8,1 11 6 E 1029,8 0,0
24.03.2019 00:00:00 9,7 8,6 17 9 E 1029,7 0,0
23.03.2019 23:00:00 9,8 8,7 14 7 E 1029,9 0,0
23.03.2019 22:00:00 9,8 8,6 16 9 E 1030,0 0,0
23.03.2019 21:00:00 9,8 8,2 20 11 E 1029,7 0,0
23.03.2019 20:00:00 10,0 7,9 18 10 E 1029,4 0,0
23.03.2019 19:00:00 11,1 7,6 17 9 E 1028,8 0,0
23.03.2019 18:00:00 12,2 7,9 19 10 ENE 1028,6 0,0
23.03.2019 17:00:00 12,5 9,0 23 12 NE 1028,8 0,0
23.03.2019 16:00:00 12,9 9,3 22 12 ENE 1029,0 0,0
23.03.2019 15:00:00 12,7 9,9 24 13 ENE 1029,2 0,0
23.03.2019 14:00:00 14,4 10,4 16 9 NE 1029,5 0,0
23.03.2019 13:00:00 13,6 8,8 18 10 E 1030,0 0,0
23.03.2019 12:00:00 12,5 9,0 21 12 E 1030,3 0,0
23.03.2019 11:00:00 11,5 8,9 16 9 ENE 1030,6 0,0
23.03.2019 10:00:00 10,8 9,4 15 8 ENE 1030,7 0,0
23.03.2019 09:00:00 9,5 9,2 9 5 ENE 1030,4 0,0
23.03.2019 08:00:00 6,5 6,5 8 4 E 1030,1 0,0
23.03.2019 07:00:00 5,4 5,4 6 3 ESE 1029,7 0,0
23.03.2019 06:00:00 6,4 6,4 8 4 ESE 1029,7 0,0
23.03.2019 05:00:00 7,6 7,6 9 5 NE 1029,7 0,0
23.03.2019 04:00:00 7,1 7,1 4 2 ENE 1029,6 0,0
23.03.2019 03:00:00 6,8 6,5 6 3 E 1029,4 0,0
23.03.2019 02:00:00 7,8 7,0 3 2 ESE 1029,7 0,0
23.03.2019 01:00:00 9,3 8,4 6 3 E 1029,6 0,0
23.03.2019 00:00:00 9,2 8,6 5 3 ENE 1029,9 0,0
22.03.2019 23:00:00 9,1 8,8 8 5 NE 1030,1 0,0
22.03.2019 22:00:00 9,1 9,0 8 4 ENE 1029,7 0,0
22.03.2019 21:00:00 9,3 9,0 8 4 NE 1029,5 0,0
22.03.2019 20:00:00 9,4 9,1 5 3 N 1029,2 0,0
22.03.2019 19:00:00 9,9 9,1 8 5 N 1028,6 0,0
22.03.2019 18:00:00 10,7 9,8 9 5 NW 1028,2 0,0
22.03.2019 17:00:00 12,3 10,4 12 6 NW 1028,1 0,0
22.03.2019 16:00:00 13,4 10,2 14 7 NW 1028,4 0,0
22.03.2019 15:00:00 14,8 10,2 11 6 W 1028,3 0,0
22.03.2019 14:00:00 14,1 10,3 13 7 NW 1028,5 0,0
22.03.2019 13:00:00 13,5 9,7 7 4 NW 1028,8 0,0
22.03.2019 12:00:00 13,0 9,4 11 6 N 1029,0 0,0
22.03.2019 11:00:00 14,2 9,8 4 2 ESE 1029,0 0,0
22.03.2019 10:00:00 11,6 8,4 7 4 SSE 1029,0 0,0
22.03.2019 09:00:00 9,2 7,0 9 5 SE 1029,0 0,0
22.03.2019 08:00:00 7,2 6,0 11 6 SE 1029,0 0,0
22.03.2019 07:00:00 7,3 6,1 11 6 SE 1028,5 0,0
22.03.2019 06:00:00 7,9 6,4 8 5 SSE 1028,5 0,0
22.03.2019 05:00:00 8,4 6,7 9 5 SE 1028,7 0,0
22.03.2019 04:00:00 8,6 7,1 4 2 ESE 1029,3 0,0
22.03.2019 03:00:00 9,9 7,5 3 1 SE 1029,7 0,0
22.03.2019 02:00:00 10,3 7,5 3 2 SSE 1029,9 0,0
22.03.2019 01:00:00 10,3 8,6 6 3 SSE 1030,0 0,0
22.03.2019 00:00:00 10,2 8,5 9 5 SE 1030,5 0,0
21.03.2019 23:00:00 10,3 8,2 7 4 ESE 1031,1 0,0
21.03.2019 22:00:00 10,4 8,3 7 4 E 1031,6 0,0
21.03.2019 21:00:00 10,6 8,5 7 4 E 1031,6 0,0
21.03.2019 20:00:00 10,8 9,1 8 4 E 1031,8 0,0
21.03.2019 19:00:00 11,1 8,7 7 4 E 1031,7 0,0
21.03.2019 18:00:00 11,4 8,8 9 5 E 1031,9 0,0
21.03.2019 17:00:00 11,7 8,4 9 5 E 1032,1 0,0
21.03.2019 16:00:00 11,8 8,6 10 6 E 1032,7 0,0
21.03.2019 15:00:00 12,2 7,5 10 5 NE 1033,3 0,0
21.03.2019 14:00:00 12,8 8,1 6 4 NE 1034,1 0,0
21.03.2019 13:00:00 12,8 9,1 9 5 NNE 1034,6 0,0
21.03.2019 12:00:00 13,0 9,1 5 3 NW 1034,6 0,0
21.03.2019 11:00:00 12,7 6,9 5 3 SSW 1034,9 0,0
21.03.2019 10:00:00 11,3 8,9 0 0 N 1035,0 0,0
21.03.2019 09:00:00 10,1 9,3 4 2 SE 1034,9 0,0
21.03.2019 08:00:00 9,6 9,1 0 0 N 1034,8 0,0
21.03.2019 07:00:00 9,6 9,1 3 2 ESE 1034,3 0,0
21.03.2019 06:00:00 9,8 9,3 3 2 SE 1034,1 0,0
21.03.2019 05:00:00 9,9 9,4 4 2 S 1034,0 0,0
21.03.2019 04:00:00 9,9 9,4 2 1 SW 1034,3 0,0
21.03.2019 03:00:00 10,0 9,4 5 3 SSW 1034,6 0,0
21.03.2019 02:00:00 10,2 9,6 5 3 S 1034,8 0,0
21.03.2019 01:00:00 10,2 9,4 7 4 S 1035,1 0,0
21.03.2019 00:00:00 10,3 9,7 9 5 S 1035,2 0,0
20.03.2019 23:00:00 10,4 9,8 8 4 S 1035,0 0,0
20.03.2019 22:00:00 10,7 9,9 5 3 SSW 1035,1 0,0
20.03.2019 21:00:00 10,9 9,8 5 3 SW 1034,9 0,0
20.03.2019 20:00:00 11,0 9,9 7 4 SSW 1034,6 0,0
20.03.2019 19:00:00 11,4 9,8 9 5 WSW 1034,4 0,0
20.03.2019 18:00:00 11,7 9,8 14 7 WSW 1034,2 0,0
20.03.2019 17:00:00 11,9 10,0 14 8 WSW 1033,9 0,0
20.03.2019 16:00:00 12,5 10,2 13 7 W 1034,1 0,0
20.03.2019 15:00:00 12,2 10,6 14 7 WSW 1034,5 0,0
20.03.2019 14:00:00 12,6 10,5 15 8 W 1034,7 0,0
20.03.2019 13:00:00 12,5 10,7 13 7 WSW 1034,9 0,0
20.03.2019 12:00:00 11,8 10,5 14 8 WSW 1034,9 0,0
20.03.2019 11:00:00 11,6 10,8 13 7 WSW 1034,7 0,0
20.03.2019 10:00:00 11,2 10,9 10 5 WSW 1034,5 0,0
20.03.2019 09:00:00 10,5 10,5 8 4 W 1034,2 0,0
20.03.2019 08:00:00 10,2 10,2 6 4 W 1033,5 0,2

tt = temperature
td = dewpoint
ff = wind speed
dd = wind direction
ppp = reduced air pressure
rr = precipitation

Next stations